Time;durP1;ratioP1;P1;durP2;ratioP2;P2;SDS_P1;SDS_P2;PMS_P1;PMS_P2;Temp;Humidity;BMP_temperature;BMP_pressure;BME280_temperature;BME280_humidity;BME280_pressure;Samples;Min_cycle;Max_cycle;Signal;HPM_P1;HPM_P2
2023/04/27 00:00:19;;;;;;;9.25;2.20;;;;;;;6.43;65.91;101102.78;5042086;28;20067;-70
2023/04/27 00:02:46;;;;;;;3.72;1.70;;;;;;;6.43;66.04;101090.56;5050242;28;20189;-70
2023/04/27 00:05:14;;;;;;;6.82;2.50;;;;;;;6.40;66.54;101088.06;5042499;28;20049;-71
2023/04/27 00:07:42;;;;;;;10.00;2.35;;;;;;;6.39;66.12;101091.56;5013873;28;20103;-71
2023/04/27 00:10:09;;;;;;;10.82;2.22;;;;;;;6.40;66.21;101088.06;5027352;28;20045;-71
2023/04/27 00:12:37;;;;;;;6.15;2.00;;;;;;;6.42;66.31;101080.16;5022186;28;20524;-72
2023/04/27 00:15:06;;;;;;;6.50;2.47;;;;;;;6.43;66.02;101087.09;5021586;28;20123;-72
2023/04/27 00:17:33;;;;;;;6.90;2.30;;;;;;;6.36;66.37;101083.84;5033284;28;20141;-74
2023/04/27 00:20:00;;;;;;;6.53;1.77;;;;;;;6.39;66.13;101080.25;5025430;28;20169;-72
2023/04/27 00:22:28;;;;;;;6.45;2.40;;;;;;;6.36;66.35;101081.22;5020947;28;20161;-72
2023/04/27 00:24:55;;;;;;;6.45;2.30;;;;;;;6.35;66.29;101082.16;5024283;28;20116;-71
2023/04/27 00:27:22;;;;;;;11.52;2.35;;;;;;;6.29;66.56;101080.56;5047165;28;20060;-73
2023/04/27 00:29:49;;;;;;;7.97;2.10;;;;;;;6.24;66.58;101084.25;5044104;28;20061;-71
2023/04/27 00:32:16;;;;;;;13.18;2.28;;;;;;;6.22;66.51;101083.47;5046769;28;20649;-72
2023/04/27 00:34:44;;;;;;;5.43;1.98;;;;;;;6.20;66.49;101088.72;5008624;28;20049;-71
2023/04/27 00:37:11;;;;;;;8.55;2.70;;;;;;;6.19;66.38;101089.63;5055696;28;20076;-72
2023/04/27 00:39:38;;;;;;;8.38;2.30;;;;;;;6.19;66.84;101088.78;5055556;28;20095;-72
2023/04/27 00:42:10;;;;;;;8.65;2.25;;;;;;;6.19;66.56;101088.78;5012673;28;20066;-73
2023/04/27 00:44:37;;;;;;;6.88;2.10;;;;;;;6.17;66.46;101091.47;5039058;28;20129;-73
2023/04/27 00:47:06;;;;;;;8.63;3.03;;;;;;;6.17;67.02;101088.84;5042677;28;20230;-72
2023/04/27 00:49:33;;;;;;;8.55;2.15;;;;;;;6.17;66.96;101090.56;5026498;28;20416;-73
2023/04/27 00:52:01;;;;;;;5.50;2.05;;;;;;;6.18;67.29;101094.94;5044400;28;20069;-72
2023/04/27 00:54:28;;;;;;;6.80;2.15;;;;;;;6.16;66.83;101102.78;5006743;28;20037;-71
2023/04/27 00:56:56;;;;;;;7.93;2.10;;;;;;;6.17;66.74;101101.03;5010288;28;20057;-72
2023/04/27 00:59:24;;;;;;;9.13;2.60;;;;;;;6.17;66.92;101098.41;5007106;28;20053;-72
2023/04/27 01:01:52;;;;;;;6.90;2.17;;;;;;;6.17;66.45;101103.66;5027255;28;20048;-71
2023/04/27 01:04:20;;;;;;;5.10;2.13;;;;;;;6.14;66.65;101102.00;5008132;28;20064;-74
2023/04/27 01:06:48;;;;;;;10.60;2.85;;;;;;;6.14;66.69;101099.41;5027797;28;20055;-73
2023/04/27 01:09:18;;;;;;;4.45;2.25;;;;;;;6.12;66.92;101098.56;5028557;28;20067;-71
2023/04/27 01:11:46;;;;;;;4.20;1.60;;;;;;;6.09;66.69;101103.91;5028363;28;20124;-73
2023/04/27 01:14:13;;;;;;;12.00;2.20;;;;;;;6.11;66.55;101101.25;5043856;28;20112;-71
2023/04/27 01:16:40;;;;;;;15.02;2.22;;;;;;;6.09;66.63;101106.53;5029907;28;20072;-73
2023/04/27 01:19:08;;;;;;;6.10;2.22;;;;;;;6.06;66.32;101107.47;5027665;28;20057;-72
2023/04/27 01:21:35;;;;;;;8.00;2.42;;;;;;;6.05;66.58;101099.69;5028350;28;20075;-72
2023/04/27 01:24:06;;;;;;;4.80;2.03;;;;;;;6.04;66.62;101100.59;5013191;28;20049;-73
2023/04/27 01:26:33;;;;;;;9.93;2.03;;;;;;;6.01;66.02;101104.16;5005527;28;20128;-73
2023/04/27 01:29:01;;;;;;;7.68;2.28;;;;;;;6.01;66.50;101108.53;5020426;28;20473;-72
2023/04/27 01:31:28;;;;;;;10.32;2.40;;;;;;;6.00;66.58;101110.31;5045981;28;20076;-72
2023/04/27 01:33:55;;;;;;;8.82;2.67;;;;;;;5.99;66.62;101102.50;5039557;28;20081;-72
2023/04/27 01:36:23;;;;;;;8.15;2.28;;;;;;;5.98;66.76;101114.69;5029568;28;20129;-73
2023/04/27 01:38:50;;;;;;;9.48;2.50;;;;;;;5.97;67.07;101110.38;5046371;28;20135;-73
2023/04/27 01:41:17;;;;;;;5.85;2.60;;;;;;;5.96;67.55;101118.28;5031243;28;20138;-73
2023/04/27 01:43:44;;;;;;;6.72;2.10;;;;;;;5.96;67.64;101116.53;5025122;28;20052;-71
2023/04/27 01:46:12;;;;;;;7.20;2.63;;;;;;;5.96;67.88;101113.91;5048622;28;20492;-73
2023/04/27 01:48:40;;;;;;;5.05;2.22;;;;;;;5.92;68.16;101111.44;5026553;28;20072;-73
2023/04/27 01:51:08;;;;;;;8.82;2.47;;;;;;;5.91;68.51;101121.00;5029753;28;20128;-75
2023/04/27 01:53:35;;;;;;;7.60;2.20;;;;;;;5.92;68.33;101121.91;5012578;28;20044;-73
2023/04/27 01:56:02;;;;;;;9.68;3.08;;;;;;;5.93;68.49;101123.59;5034920;28;20085;-73
2023/04/27 01:58:29;;;;;;;5.55;2.00;;;;;;;5.91;68.92;101123.63;5042087;28;20129;-73
2023/04/27 02:00:57;;;;;;;8.48;2.80;;;;;;;5.90;69.25;101127.16;5021907;28;20740;-72
2023/04/27 02:03:24;;;;;;;4.38;2.05;;;;;;;5.94;69.04;101130.53;5027184;28;20131;-73
2023/04/27 02:05:52;;;;;;;5.65;2.13;;;;;;;5.87;69.31;101127.25;5012609;28;20140;-73
2023/04/27 02:08:19;;;;;;;8.27;3.15;;;;;;;5.87;69.19;101134.22;5035032;28;20447;-73
2023/04/27 02:10:46;;;;;;;10.82;2.65;;;;;;;5.84;69.63;101127.31;5036676;28;20143;-73
2023/04/27 02:13:14;;;;;;;5.82;2.40;;;;;;;5.82;69.58;101132.59;5027803;28;20077;-72
2023/04/27 02:15:41;;;;;;;11.35;3.03;;;;;;;5.82;70.00;101142.22;5010786;28;20873;-72
2023/04/27 02:18:09;;;;;;;9.80;2.53;;;;;;;5.81;69.23;101138.75;5013352;28;20045;-73
2023/04/27 02:20:36;;;;;;;7.28;2.30;;;;;;;5.81;69.49;101148.34;5021965;28;20126;-71
2023/04/27 02:23:03;;;;;;;12.30;2.85;;;;;;;5.81;69.70;101143.97;5023964;28;20060;-72
2023/04/27 02:25:30;;;;;;;8.02;2.50;;;;;;;5.77;69.52;101146.72;5018603;28;20136;-73
2023/04/27 02:27:57;;;;;;;6.82;2.33;;;;;;;5.79;69.13;101147.53;5045976;28;20065;-73
2023/04/27 02:30:25;;;;;;;12.13;3.08;;;;;;;5.77;69.04;101144.97;5043147;28;20061;-72
2023/04/27 02:32:53;;;;;;;12.70;2.90;;;;;;;5.73;69.11;101151.19;5009259;28;20045;-72
2023/04/27 02:35:20;;;;;;;7.13;2.40;;;;;;;5.72;69.00;101151.22;5014492;28;20128;-73
2023/04/27 02:37:48;;;;;;;9.77;2.83;;;;;;;5.72;68.88;101152.09;5027421;28;20056;-72
2023/04/27 02:40:15;;;;;;;10.27;3.30;;;;;;;5.72;69.04;101146.88;5040669;28;20045;-71
2023/04/27 02:42:42;;;;;;;9.52;3.03;;;;;;;5.69;68.81;101146.94;5022581;28;20140;-71
2023/04/27 02:45:10;;;;;;;9.73;2.75;;;;;;;5.67;68.90;101160.94;5035552;28;20049;-71
2023/04/27 02:47:37;;;;;;;10.52;2.20;;;;;;;5.66;68.54;101154.88;5027103;28;20053;-72
2023/04/27 02:50:05;;;;;;;9.75;2.70;;;;;;;5.67;68.38;101158.34;5037391;28;20367;-70
2023/04/27 02:52:32;;;;;;;7.07;2.30;;;;;;;5.65;68.73;101152.31;5018977;28;20135;-72
2023/04/27 02:54:59;;;;;;;8.15;2.00;;;;;;;5.65;68.83;101157.53;5018182;28;20065;-72
2023/04/27 02:57:27;;;;;;;5.72;2.63;;;;;;;5.59;69.01;101156.81;5008414;28;20136;-71
2023/04/27 02:59:54;;;;;;;11.52;2.97;;;;;;;5.60;68.96;101157.69;5020858;28;20079;-71
2023/04/27 03:02:21;;;;;;;10.30;2.50;;;;;;;5.61;69.10;101171.59;5042326;28;20141;-72
2023/04/27 03:04:53;;;;;;;6.07;2.05;;;;;;;5.56;69.04;101166.50;5007699;28;20049;-73
2023/04/27 03:07:21;;;;;;;13.23;2.30;;;;;;;5.57;68.59;101163.84;5021287;28;20049;-73
2023/04/27 03:09:48;;;;;;;6.25;2.63;;;;;;;5.58;69.01;101162.97;5038191;28;20045;-72
2023/04/27 03:12:15;;;;;;;9.25;2.30;;;;;;;5.56;68.78;101172.56;5036205;28;20079;-73
2023/04/27 03:14:43;;;;;;;11.18;2.65;;;;;;;5.55;69.05;101168.25;4995965;28;20059;-72
2023/04/27 03:17:10;;;;;;;8.07;2.28;;;;;;;5.52;68.55;101175.31;5036172;28;20555;-73
2023/04/27 03:19:37;;;;;;;10.77;2.40;;;;;;;5.50;68.74;101178.00;5031212;28;20056;-72
2023/04/27 03:22:05;;;;;;;8.50;2.40;;;;;;;5.49;68.70;101176.28;5026884;28;20108;-73
2023/04/27 03:24:33;;;;;;;13.57;2.40;;;;;;;5.49;68.56;101173.66;5026193;28;20168;-73
2023/04/27 03:27:02;;;;;;;5.25;2.38;;;;;;;5.49;68.77;101164.94;5042619;28;20378;-71
2023/04/27 03:29:29;;;;;;;9.15;2.28;;;;;;;5.49;68.95;101180.63;5030669;28;20080;-73
2023/04/27 03:31:56;;;;;;;7.45;2.20;;;;;;;5.48;68.89;101174.53;5028807;28;20080;-73
2023/04/27 03:34:23;;;;;;;7.00;2.20;;;;;;;5.48;69.00;101182.38;5019196;28;20048;-73
2023/04/27 03:36:51;;;;;;;6.95;2.10;;;;;;;5.47;68.44;101182.44;5050067;28;20057;-72
2023/04/27 03:39:18;;;;;;;6.53;2.83;;;;;;;5.50;68.55;101188.44;5050682;28;20077;-72
2023/04/27 03:41:46;;;;;;;9.57;2.20;;;;;;;5.52;68.35;101183.16;5046891;28;20136;-72
2023/04/27 03:44:13;;;;;;;7.72;2.33;;;;;;;5.48;68.40;101187.59;5044201;28;20084;-72
2023/04/27 03:46:40;;;;;;;5.25;2.10;;;;;;;5.47;69.02;101188.50;5019439;28;20057;-73
2023/04/27 03:49:08;;;;;;;6.95;2.63;;;;;;;5.48;69.06;101194.59;5024720;28;20122;-73
2023/04/27 03:51:36;;;;;;;11.15;2.47;;;;;;;5.48;69.40;101198.06;5027369;28;20109;-73
2023/04/27 03:54:04;;;;;;;6.15;2.28;;;;;;;5.50;69.08;101200.63;5026301;28;20128;-73
2023/04/27 03:56:33;;;;;;;6.78;2.53;;;;;;;5.49;68.94;101201.50;5044343;28;20053;-72
2023/04/27 03:59:00;;;;;;;7.97;2.58;;;;;;;5.48;69.29;101197.19;5026861;28;20045;-72
2023/04/27 04:01:28;;;;;;;9.10;2.40;;;;;;;5.45;68.84;101198.16;5046612;28;20183;-72
2023/04/27 04:03:55;;;;;;;9.02;2.65;;;;;;;5.47;69.11;101198.09;5038727;28;20603;-72
2023/04/27 04:06:22;;;;;;;16.10;2.80;;;;;;;5.48;69.08;101205.03;5006537;28;20108;-72
2023/04/27 04:08:50;;;;;;;7.45;2.20;;;;;;;5.51;69.12;101203.19;5040326;28;20053;-72
2023/04/27 04:11:17;;;;;;;11.95;2.58;;;;;;;5.52;69.21;101207.50;5036390;28;20044;-72
2023/04/27 04:13:46;;;;;;;6.50;2.15;;;;;;;5.53;68.87;101213.59;5025064;28;20135;-73
2023/04/27 04:16:13;;;;;;;13.52;2.97;;;;;;;5.56;69.29;101214.38;5003700;28;20157;-71
2023/04/27 04:18:40;;;;;;;8.27;2.30;;;;;;;5.57;69.10;101225.66;5007649;28;20200;-74
2023/04/27 04:21:12;;;;;;;9.18;2.60;;;;;;;5.55;69.09;101220.50;5035228;28;20103;-74
2023/04/27 04:23:42;;;;;;;6.75;2.53;;;;;;;5.58;69.29;101225.63;5021586;28;20690;-73
2023/04/27 04:26:10;;;;;;;5.10;2.35;;;;;;;5.61;69.21;101222.06;5020309;28;20063;-73
2023/04/27 04:28:37;;;;;;;9.13;2.17;;;;;;;5.63;68.51;101219.41;5042982;28;20128;-74
2023/04/27 04:31:05;;;;;;;5.13;1.88;;;;;;;5.62;68.62;101218.53;5008484;28;20061;-73
2023/04/27 04:33:32;;;;;;;10.00;2.53;;;;;;;5.57;68.45;101220.44;5026573;28;20131;-74
2023/04/27 04:36:03;;;;;;;8.30;2.60;;;;;;;5.60;68.67;101230.81;5048906;28;20079;-73
2023/04/27 04:38:31;;;;;;;7.65;2.30;;;;;;;5.63;68.06;101229.84;5028938;28;20044;-73
2023/04/27 04:40:59;;;;;;;7.15;2.33;;;;;;;5.66;68.61;101225.41;5043533;28;20107;-72
2023/04/27 04:43:26;;;;;;;5.55;2.17;;;;;;;5.69;68.89;101227.06;5027525;28;20565;-74
2023/04/27 04:45:53;;;;;;;13.50;2.55;;;;;;;5.72;68.65;101230.47;5022754;28;20049;-74
2023/04/27 04:48:21;;;;;;;11.48;2.72;;;;;;;5.74;68.32;101233.03;5026423;28;20501;-73
2023/04/27 04:50:48;;;;;;;14.45;2.95;;;;;;;5.73;67.73;101233.94;5026607;28;20750;-73
2023/04/27 04:53:15;;;;;;;9.70;2.90;;;;;;;5.77;67.79;101232.94;5041938;28;20076;-73
2023/04/27 04:55:42;;;;;;;12.27;2.50;;;;;;;5.77;68.11;101235.56;5048267;28;20162;-73
2023/04/27 04:58:10;;;;;;;10.15;2.50;;;;;;;5.80;67.57;101236.28;5041962;28;20140;-73
2023/04/27 05:00:37;;;;;;;9.43;3.58;;;;;;;5.82;67.74;101241.50;5018688;28;20045;-73
2023/04/27 05:03:06;;;;;;;9.82;2.83;;;;;;;5.84;67.64;101250.13;5025270;28;20132;-73
2023/04/27 05:05:33;;;;;;;12.65;3.28;;;;;;;5.81;67.56;101243.25;5019340;28;20231;-70
2023/04/27 05:08:01;;;;;;;11.70;3.22;;;;;;;5.87;67.72;101243.97;5037719;28;20041;-72
2023/04/27 05:10:28;;;;;;;9.52;2.42;;;;;;;5.87;68.10;101252.66;5024052;28;20136;-73
2023/04/27 05:12:56;;;;;;;11.07;3.22;;;;;;;5.90;68.02;101254.31;5023432;28;20048;-72
2023/04/27 05:15:23;;;;;;;8.82;2.45;;;;;;;5.91;67.99;101250.81;5042593;28;21828;-72
2023/04/27 05:17:52;;;;;;;10.90;2.65;;;;;;;5.96;68.10;101247.19;5041241;28;20063;-72
2023/04/27 05:20:20;;;;;;;8.43;3.15;;;;;;;5.98;68.10;101248.00;5020380;28;20075;-71
2023/04/27 05:22:47;;;;;;;12.93;3.15;;;;;;;5.99;67.81;101254.97;5002575;28;20105;-72
2023/04/27 05:25:15;;;;;;;11.70;3.08;;;;;;;6.08;67.73;101249.44;5039599;28;20442;-73
2023/04/27 05:27:42;;;;;;;10.02;3.17;;;;;;;6.11;67.87;101250.25;5043718;28;20116;-72
2023/04/27 05:30:10;;;;;;;8.27;2.72;;;;;;;6.16;67.43;101251.81;5045993;28;20103;-72
2023/04/27 05:32:38;;;;;;;6.93;2.85;;;;;;;6.08;67.62;101246.84;5027996;28;20148;-73
2023/04/27 05:35:05;;;;;;;7.40;2.88;;;;;;;6.14;67.44;101247.53;5040822;28;20037;-75
2023/04/27 05:37:33;;;;;;;10.77;2.58;;;;;;;6.19;67.73;101235.19;5011130;28;20115;-73
2023/04/27 05:40:00;;;;;;;10.88;2.40;;;;;;;6.24;67.17;101243.72;5027337;28;20080;-72
2023/04/27 05:42:27;;;;;;;8.77;2.92;;;;;;;6.30;67.51;101243.53;5022488;28;20139;-74
2023/04/27 05:44:55;;;;;;;11.63;2.75;;;;;;;6.33;66.78;101248.69;5024794;28;20040;-73
2023/04/27 05:47:23;;;;;;;9.27;2.65;;;;;;;6.31;66.66;101248.75;5034840;28;20167;-74
2023/04/27 05:49:51;;;;;;;10.07;3.38;;;;;;;6.32;66.66;101255.66;5025143;28;20054;-72
2023/04/27 05:52:19;;;;;;;10.48;3.00;;;;;;;6.48;66.25;101253.41;5007945;28;20103;-72
2023/04/27 05:54:47;;;;;;;11.88;3.42;;;;;;;6.55;65.98;101256.69;5020786;28;20044;-72
2023/04/27 05:57:15;;;;;;;9.35;2.67;;;;;;;6.55;66.40;101257.56;5006094;28;20420;-72
2023/04/27 05:59:43;;;;;;;8.02;2.65;;;;;;;6.59;65.64;101261.78;5018099;28;20076;-72
2023/04/27 06:02:11;;;;;;;14.30;3.33;;;;;;;6.58;65.71;101254.00;5020817;28;20155;-72
2023/04/27 06:04:38;;;;;;;10.27;2.95;;;;;;;6.62;65.52;101262.56;5019712;28;20068;-72
2023/04/27 06:07:10;;;;;;;6.90;2.20;;;;;;;6.62;65.70;101273.03;5008061;28;20676;-71
2023/04/27 06:09:37;;;;;;;9.18;3.17;;;;;;;6.45;66.00;101278.84;5016814;28;20068;-74
2023/04/27 06:12:05;;;;;;;7.05;2.35;;;;;;;6.35;65.88;101283.50;5022751;28;20141;-73
2023/04/27 06:14:33;;;;;;;6.75;2.63;;;;;;;6.37;65.81;101278.22;5005009;28;20060;-72
2023/04/27 06:17:01;;;;;;;11.02;3.28;;;;;;;6.51;65.54;101271.63;5034654;28;20108;-71
2023/04/27 06:19:28;;;;;;;8.02;2.78;;;;;;;6.69;65.14;101275.41;5017469;28;20053;-71
2023/04/27 06:21:55;;;;;;;8.32;2.63;;;;;;;6.86;64.59;101272.25;5009648;28;20048;-71
2023/04/27 06:24:23;;;;;;;8.38;3.00;;;;;;;6.95;63.37;101271.94;5018760;28;20057;-70
2023/04/27 06:26:50;;;;;;;11.80;3.13;;;;;;;7.09;62.78;101274.97;5003509;28;20063;-72
2023/04/27 06:29:17;;;;;;;9.45;2.80;;;;;;;7.05;61.92;101268.09;5022960;28;20063;-73
2023/04/27 06:31:44;;;;;;;9.75;2.65;;;;;;;6.96;62.66;101278.91;5009003;28;20658;-72
2023/04/27 06:34:11;;;;;;;13.20;2.78;;;;;;;7.04;62.89;101278.66;5039840;28;20074;-71
2023/04/27 06:36:39;;;;;;;8.50;2.42;;;;;;;7.09;62.01;101282.81;5005240;28;20195;-71
2023/04/27 06:39:06;;;;;;;9.20;2.28;;;;;;;7.08;61.80;101283.72;5041849;28;20150;-71
2023/04/27 06:41:33;;;;;;;6.57;2.20;;;;;;;7.00;61.70;101277.03;5006148;28;20144;-71
2023/04/27 06:44:00;;;;;;;7.60;2.17;;;;;;;7.18;61.03;101280.78;5002324;28;20050;-70
2023/04/27 06:46:28;;;;;;;10.85;2.60;;;;;;;7.03;61.13;101283.03;5017524;28;20054;-72
2023/04/27 06:48:55;;;;;;;8.13;2.20;;;;;;;7.30;60.89;101283.84;5037421;28;20464;-72
2023/04/27 06:51:22;;;;;;;8.10;2.00;;;;;;;7.42;60.52;101281.69;5036322;28;20099;-73
2023/04/27 06:53:50;;;;;;;9.93;2.63;;;;;;;7.57;59.72;101284.63;5005980;28;20201;-73
2023/04/27 06:56:17;;;;;;;9.07;2.40;;;;;;;7.61;59.83;101288.00;5003744;28;20049;-73
2023/04/27 06:58:44;;;;;;;7.22;2.08;;;;;;;7.69;59.05;101288.56;5024377;28;20625;-72
2023/04/27 07:01:11;;;;;;;7.00;2.08;;;;;;;7.77;58.63;101288.28;5019171;28;20053;-74
2023/04/27 07:03:39;;;;;;;7.72;2.13;;;;;;;7.81;57.94;101293.38;5016624;28;20136;-73
2023/04/27 07:06:06;;;;;;;9.68;2.03;;;;;;;7.79;57.12;101296.94;5024241;28;20596;-73
2023/04/27 07:08:34;;;;;;;13.10;2.20;;;;;;;7.76;57.54;101295.31;5006642;28;22417;-74
2023/04/27 07:11:01;;;;;;;5.15;1.88;;;;;;;7.60;56.74;101296.75;5041318;28;20140;-74
2023/04/27 07:13:29;;;;;;;9.85;2.03;;;;;;;7.54;57.34;101294.38;5017479;28;20436;-73
2023/04/27 07:16:00;;;;;;;4.50;1.80;;;;;;;7.67;57.16;101298.25;5018942;28;20071;-73
2023/04/27 07:18:27;;;;;;;10.50;1.90;;;;;;;7.92;57.57;101295.56;5021273;28;20049;-73
2023/04/27 07:20:56;;;;;;;6.18;1.83;;;;;;;8.16;56.41;101299.06;5024114;28;20044;-74
2023/04/27 07:23:23;;;;;;;4.90;2.20;;;;;;;8.35;56.75;101293.97;5022336;28;20049;-73
2023/04/27 07:25:51;;;;;;;8.20;2.25;;;;;;;8.47;55.70;101297.91;5034103;28;20084;-73
2023/04/27 07:28:18;;;;;;;6.47;2.33;;;;;;;8.52;55.90;101301.22;5016247;28;20060;-73
2023/04/27 07:30:45;;;;;;;7.28;2.42;;;;;;;8.24;55.94;101306.63;4991009;28;20047;-72
2023/04/27 07:33:13;;;;;;;7.88;2.42;;;;;;;8.06;56.15;101303.81;5019699;28;20211;-72
2023/04/27 07:35:40;;;;;;;9.60;2.42;;;;;;;8.05;55.42;101299.44;5040471;28;20045;-72
2023/04/27 07:38:08;;;;;;;6.72;2.10;;;;;;;8.39;54.64;101294.72;5026050;28;20053;-72
2023/04/27 07:40:35;;;;;;;5.90;2.22;;;;;;;8.70;53.54;101297.00;5021112;28;20045;-73
2023/04/27 07:43:03;;;;;;;4.35;1.95;;;;;;;9.04;52.29;101294.66;5030383;28;20071;-72
2023/04/27 07:45:33;;;;;;;6.38;2.10;;;;;;;9.22;52.00;101294.81;5017035;28;20052;-73
2023/04/27 07:48:00;;;;;;;10.20;1.67;;;;;;;9.24;52.23;101290.38;5014258;28;20136;-73
2023/04/27 07:50:29;;;;;;;8.15;2.20;;;;;;;9.37;52.27;101308.16;5028611;28;20052;-72
2023/04/27 07:52:56;;;;;;;6.18;2.47;;;;;;;8.97;51.06;101295.88;5018202;28;20525;-72
2023/04/27 07:55:25;;;;;;;5.60;1.90;;;;;;;8.92;50.72;101307.47;5021548;28;20647;-72
2023/04/27 07:57:53;;;;;;;7.15;2.05;;;;;;;8.96;51.20;101311.66;5009493;28;20528;-71
2023/04/27 08:00:21;;;;;;;7.40;2.15;;;;;;;9.15;51.28;101303.91;5036420;28;20057;-72
2023/04/27 08:02:51;;;;;;;5.40;2.20;;;;;;;9.06;50.66;101318.28;5018414;28;20049;-72
2023/04/27 08:05:18;;;;;;;10.60;2.67;;;;;;;9.06;51.21;101313.00;5033033;28;20056;-71
2023/04/27 08:07:46;;;;;;;7.20;2.40;;;;;;;8.87;50.87;101312.88;5040239;28;20477;-71
2023/04/27 08:10:14;;;;;;;6.13;1.95;;;;;;;8.77;50.89;101314.19;5040261;28;20471;-72
2023/04/27 08:12:41;;;;;;;8.30;2.15;;;;;;;9.09;51.46;101313.72;5012755;28;20053;-72
2023/04/27 08:15:09;;;;;;;7.00;2.30;;;;;;;9.59;50.10;101318.63;5013698;28;20144;-72
2023/04/27 08:17:39;;;;;;;7.80;2.88;;;;;;;9.50;49.41;101313.75;5013711;28;20067;-71
2023/04/27 08:20:11;;;;;;;6.15;2.08;;;;;;;8.97;50.21;101318.66;5035295;28;20140;-72
2023/04/27 08:22:39;;;;;;;6.15;2.15;;;;;;;9.02;50.18;101325.41;5000731;28;20387;-72
2023/04/27 08:25:07;;;;;;;6.85;1.95;;;;;;;8.81;51.06;101331.53;4999960;28;20381;-73
2023/04/27 08:27:36;;;;;;;5.57;2.35;;;;;;;8.84;50.52;101321.75;5041280;28;20073;-70
2023/04/27 08:30:04;;;;;;;8.15;1.90;;;;;;;8.91;49.93;101324.97;5021485;28;20140;-72
2023/04/27 08:32:32;;;;;;;7.30;2.40;;;;;;;8.91;49.98;101324.13;5034291;28;20061;-73
2023/04/27 08:34:59;;;;;;;5.22;2.05;;;;;;;9.00;50.01;101327.22;5003963;28;20080;-73
2023/04/27 08:37:26;;;;;;;4.32;2.17;;;;;;;9.00;49.41;101329.00;5039089;28;20051;-72
2023/04/27 08:39:53;;;;;;;4.60;2.00;;;;;;;8.97;48.63;101319.50;5038353;28;20132;-73
2023/04/27 08:42:20;;;;;;;6.10;2.40;;;;;;;8.74;49.30;101330.09;5015148;28;20081;-74
2023/04/27 08:44:48;;;;;;;6.05;2.40;;;;;;;8.62;49.97;101323.53;5009103;28;20058;-73
2023/04/27 08:47:15;;;;;;;7.05;2.42;;;;;;;8.69;50.23;101326.75;5032833;28;20144;-74
2023/04/27 08:49:42;;;;;;;9.25;2.45;;;;;;;8.80;49.94;101328.06;5032879;28;20053;-74
2023/04/27 08:52:13;;;;;;;9.35;2.05;;;;;;;8.86;50.21;101319.06;5036289;28;20123;-73
2023/04/27 08:54:40;;;;;;;6.57;2.17;;;;;;;9.08;50.70;101333.03;5034218;28;20053;-74
2023/04/27 08:57:11;;;;;;;9.45;1.95;;;;;;;9.37;49.96;101317.84;5033595;28;20053;-73
2023/04/27 08:59:39;;;;;;;6.57;2.05;;;;;;;9.43;49.47;101317.56;5039501;28;20067;-74
2023/04/27 09:02:17;;;;;;;8.15;1.98;;;;;;;9.66;49.47;101326.22;5002280;28;20046;-74
2023/04/27 09:04:45;;;;;;;6.22;2.20;;;;;;;9.33;49.57;101319.72;5028162;28;20201;-74
2023/04/27 09:07:17;;;;;;;7.68;1.83;;;;;;;9.18;49.71;101323.00;5049900;28;20055;-73
2023/04/27 09:09:44;;;;;;;6.85;2.38;;;;;;;9.29;50.05;101314.69;5018889;28;20641;-74
2023/04/27 09:12:17;;;;;;;7.60;2.95;;;;;;;9.43;50.63;101328.06;4996773;28;20435;-73
2023/04/27 09:14:58;;;;;;;7.45;2.88;;;;;;;9.30;49.01;101321.63;5016829;28;20093;-72
2023/04/27 09:17:27;;;;;;;8.45;2.60;;;;;;;9.34;49.81;101310.91;5001149;28;20049;-71
2023/04/27 09:20:12;;;;;;;7.15;2.72;;;;;;;9.47;49.43;101324.41;5032330;28;20159;-72
2023/04/27 09:22:46;;;;;;;9.65;3.13;;;;;;;9.49;48.62;101327.78;5031348;28;20546;-72
2023/04/27 09:25:28;;;;;;;10.65;2.13;;;;;;;9.28;48.91;101324.34;5015801;28;20144;-73
2023/04/27 09:27:56;;;;;;;10.52;2.00;;;;;;;9.19;49.29;101319.47;5015122;28;20097;-72
2023/04/27 09:30:25;;;;;;;7.97;2.53;;;;;;;9.22;49.35;101324.56;5032135;28;20045;-74
2023/04/27 09:33:03;;;;;;;6.10;2.55;;;;;;;9.12;50.09;101318.84;5029908;28;20409;-74
2023/04/27 09:35:31;;;;;;;4.28;2.03;;;;;;;8.79;49.62;101320.25;5014437;28;20420;-74
2023/04/27 09:37:59;;;;;;;6.90;2.05;;;;;;;8.75;49.32;101310.78;5002456;28;20141;-74
2023/04/27 09:40:28;;;;;;;10.38;2.65;;;;;;;8.78;49.01;101311.53;5034333;28;20119;-74
2023/04/27 09:43:00;;;;;;;5.47;2.38;;;;;;;8.99;49.01;101301.03;5010718;28;20057;-73
2023/04/27 09:45:27;;;;;;;6.45;2.60;;;;;;;9.23;48.62;101302.66;5015161;28;20456;-74
2023/04/27 09:47:55;;;;;;;8.10;2.33;;;;;;;9.45;48.08;101302.56;5031402;28;20049;-74
2023/04/27 09:50:22;;;;;;;10.27;2.63;;;;;;;9.83;48.26;101303.50;5015721;28;20045;-74
2023/04/27 09:52:50;;;;;;;10.07;2.63;;;;;;;10.35;47.41;101305.53;5032308;28;20144;-74
2023/04/27 09:55:23;;;;;;;8.77;2.30;;;;;;;10.58;46.96;101293.91;4998915;28;20172;-74
2023/04/27 09:57:57;;;;;;;9.50;2.38;;;;;;;10.57;45.56;101295.69;4995156;28;20132;-74
2023/04/27 10:00:48;;;;;;;7.82;2.30;;;;;;;10.56;45.93;101290.53;5012166;28;20135;-73
2023/04/27 10:03:31;;;;;;;7.15;2.15;;;;;;;10.56;45.06;101285.25;4995391;28;20842;-75
2023/04/27 10:06:22;;;;;;;12.27;2.75;;;;;;;10.25;45.49;101293.75;5012028;28;20814;-73
2023/04/27 10:08:50;;;;;;;18.42;3.45;;;;;;;10.10;45.38;101300.56;5021219;28;20072;-74
2023/04/27 10:11:18;;;;;;;8.15;2.25;;;;;;;10.15;44.58;101301.19;5016442;28;20578;-74
2023/04/27 10:13:52;;;;;;;8.73;2.45;;;;;;;10.37;44.59;101293.19;4987787;28;20403;-73
2023/04/27 10:16:21;;;;;;;10.25;2.35;;;;;;;10.77;44.27;101291.25;5002304;28;20354;-75
2023/04/27 10:18:54;;;;;;;10.65;2.22;;;;;;;11.03;42.95;101289.94;5013428;28;20061;-73
2023/04/27 10:21:22;;;;;;;8.30;2.90;;;;;;;11.10;43.33;101275.56;5031899;28;20060;-72
2023/04/27 10:23:50;;;;;;;8.55;2.50;;;;;;;11.44;42.15;101282.59;5031765;28;20168;-73
2023/04/27 10:26:22;;;;;;;6.40;1.90;;;;;;;11.66;39.51;101279.66;5011088;28;20055;-72
2023/04/27 10:29:06;;;;;;;5.22;1.20;;;;;;;11.69;37.08;101283.94;5018184;28;20137;-72
2023/04/27 10:31:33;;;;;;;2.67;1.55;;;;;;;11.72;37.47;101276.72;4998745;28;20053;-73
2023/04/27 10:34:15;;;;;;;4.05;1.65;;;;;;;11.82;37.25;101279.69;5016473;28;20063;-73
2023/04/27 10:36:44;;;;;;;5.80;1.30;;;;;;;12.22;37.16;101264.38;4997273;28;20045;-73
2023/04/27 10:39:21;;;;;;;6.30;2.17;;;;;;;12.39;37.91;101274.84;5012873;28;20071;-73
2023/04/27 10:41:59;;;;;;;4.72;1.40;;;;;;;12.49;37.81;101283.09;5032635;28;20056;-72
2023/04/27 10:44:28;;;;;;;7.65;1.45;;;;;;;12.26;37.38;101276.47;5018144;28;20099;-73
2023/04/27 10:47:00;;;;;;;10.45;1.90;;;;;;;12.04;37.71;101285.56;5030656;28;20051;-72
2023/04/27 10:49:28;;;;;;;5.60;1.92;;;;;;;11.85;38.36;101284.84;5002785;28;20061;-71
2023/04/27 10:51:57;;;;;;;8.50;1.83;;;;;;;11.68;38.78;101277.81;5026978;28;20081;-72
2023/04/27 10:54:28;;;;;;;6.38;1.70;;;;;;;11.60;39.20;101286.09;5012382;28;20159;-72
2023/04/27 10:57:04;;;;;;;4.63;1.60;;;;;;;11.82;38.60;101285.84;5011426;28;20040;-73
2023/04/27 10:59:31;;;;;;;;;;;;;;;12.14;39.06;101272.72;5012488;28;20052;-73
2023/04/27 11:01:58;;;;;;;5.72;1.48;;;;;;;12.36;36.87;101270.56;4994257;28;19933;-73
2023/04/27 11:04:39;;;;;;;4.50;1.70;;;;;;;12.52;36.52;101280.25;5023067;28;20057;-73
2023/04/27 11:07:07;;;;;;;12.23;2.05;;;;;;;12.37;35.25;101280.19;5016151;28;20070;-73
2023/04/27 11:09:38;;;;;;;4.00;1.45;;;;;;;12.53;34.67;101276.72;5029601;28;20052;-73
2023/04/27 11:12:07;;;;;;;4.70;1.35;;;;;;;11.72;34.61;101279.34;5015166;28;20080;-72
2023/04/27 11:14:35;;;;;;;2.78;1.30;;;;;;;11.62;35.02;101283.41;4994645;28;20056;-72
2023/04/27 11:17:03;;;;;;;2.15;1.20;;;;;;;11.36;36.07;101285.63;4995643;28;20176;-72
2023/04/27 11:19:31;;;;;;;7.75;1.63;;;;;;;11.10;36.44;101281.66;5014180;28;20060;-72
2023/04/27 11:22:05;;;;;;;7.78;1.60;;;;;;;11.00;37.64;101271.69;4995106;28;20125;-72
2023/04/27 11:24:33;;;;;;;7.38;1.88;;;;;;;10.73;38.91;101287.94;4999641;28;20136;-72
2023/04/27 11:27:01;;;;;;;4.43;1.77;;;;;;;10.57;39.67;101277.28;5034346;28;21151;-72
2023/04/27 11:29:37;;;;;;;5.25;1.95;;;;;;;10.45;39.10;101290.19;5011799;28;20053;-71
2023/04/27 11:32:05;;;;;;;5.28;1.65;;;;;;;10.44;38.50;101286.69;5012550;28;20071;-72
2023/04/27 11:34:36;;;;;;;6.43;1.60;;;;;;;10.52;39.05;101292.44;5032090;28;20593;-71
2023/04/27 11:37:05;;;;;;;5.30;1.45;;;;;;;10.63;38.89;101286.69;5017710;28;20128;-72